Time;durP1;ratioP1;P1;durP2;ratioP2;P2;SDS_P1;SDS_P2;PMS_P1;PMS_P2;Temp;Humidity;BMP_temperature;BMP_pressure;BME280_temperature;BME280_humidity;BME280_pressure;Samples;Min_cycle;Max_cycle;Signal;HPM_P1;HPM_P2
2021/12/24 00:01:56;;;;;;;8.58;4.80;;;;;;;-0.77;68.30;147482.06;1744885;80;21009;-60
2021/12/24 00:04:23;;;;;;;9.80;4.65;;;;;;;-0.73;67.71;147492.34;1753879;80;20970;-67
2021/12/24 00:06:52;;;;;;;8.83;5.03;;;;;;;-0.71;67.12;147497.48;1746356;80;21004;-67
2021/12/24 00:09:23;;;;;;;12.18;4.58;;;;;;;-0.67;66.58;147506.45;1761105;80;20938;-67
2021/12/24 00:11:51;;;;;;;9.25;4.72;;;;;;;-0.63;66.07;147518.05;1768690;80;21133;-67
2021/12/24 00:14:19;;;;;;;7.37;4.28;;;;;;;-0.61;65.54;147523.19;1746251;80;21527;-68
2021/12/24 00:16:52;;;;;;;8.73;4.17;;;;;;;-0.57;65.30;147532.20;1753376;80;21039;-60
2021/12/24 00:35:22;;;;;;;7.33;4.05;;;;;;;-0.35;63.96;147586.23;1753704;80;21112;-60
2021/12/24 00:37:46;;;;;;;12.40;5.05;;;;;;;-0.33;63.86;147592.69;1759338;80;21020;-59
2021/12/24 00:40:21;;;;;;;7.65;3.92;;;;;;;-0.31;63.82;147597.84;1751724;80;21805;-60
2021/12/24 00:42:51;;;;;;;6.65;3.75;;;;;;;-0.27;63.84;147605.55;1763145;80;21211;-60
2021/12/24 00:45:21;;;;;;;9.40;4.12;;;;;;;-0.24;63.85;147613.27;1758053;80;21068;-66
2021/12/24 00:47:48;;;;;;;12.73;4.67;;;;;;;-0.21;63.90;147620.97;1748420;80;21506;-66
2021/12/24 00:50:19;;;;;;;8.13;4.12;;;;;;;-0.17;64.11;147631.25;1748376;80;21406;-66
2021/12/24 00:52:58;;;;;;;10.30;4.00;;;;;;;-0.14;64.51;147638.97;1745138;80;21972;-67
2021/12/24 00:55:26;;;;;;;10.63;4.20;;;;;;;-0.11;64.86;147646.73;1754436;80;20929;-66
2021/12/24 00:57:56;;;;;;;8.70;4.25;;;;;;;-0.06;65.08;147659.59;1754623;80;21629;-66
2021/12/24 01:00:32;;;;;;;10.35;4.67;;;;;;;-0.03;65.20;147667.31;1744726;80;21547;-66
2021/12/24 01:03:00;;;;;;;11.55;4.25;;;;;;;0.00;65.34;147673.75;1746589;80;21076;-66
2021/12/24 01:05:29;;;;;;;8.05;4.37;;;;;;;0.03;65.56;147680.17;1744351;80;21138;-66
2021/12/24 01:07:57;;;;;;;12.47;4.60;;;;;;;0.07;65.75;147690.45;1752225;80;21544;-66
2021/12/24 01:10:33;;;;;;;10.78;4.28;;;;;;;0.09;65.97;147696.91;1754617;80;21481;-66
2021/12/24 01:13:01;;;;;;;12.88;4.53;;;;;;;0.11;66.32;147700.75;1745912;80;21095;-66
2021/12/24 01:15:32;;;;;;;9.13;4.10;;;;;;;0.14;66.90;147708.50;1755167;80;21021;-66
2021/12/24 01:23:52;;;;;;;13.28;4.85;;;;;;;0.31;68.01;147749.66;1764342;80;21014;-67
2021/12/24 01:25:50;;;;;;;8.58;4.45;;;;;;;0.33;68.25;147756.11;1721233;80;21084;-68
2021/12/24 01:39:23;;;;;;;8.18;4.40;;;;;;;0.50;69.64;147798.59;1739415;79;21091;-60
2021/12/24 01:44:32;;;;;;;8.35;4.70;;;;;;;0.55;69.97;147811.50;1743071;79;21530;-66
2021/12/24 01:47:04;;;;;;;8.10;4.47;;;;;;;0.60;70.25;147823.05;1769311;79;21003;-59
2021/12/24 01:49:33;;;;;;;8.80;4.78;;;;;;;0.64;70.47;147833.34;1766600;79;21045;-59
2021/12/24 01:52:02;;;;;;;9.48;5.15;;;;;;;0.67;70.69;147839.81;1764231;81;21066;-59
2021/12/24 01:54:29;;;;;;;9.60;4.95;;;;;;;0.71;70.97;147850.09;1782494;79;20943;-66
2021/12/24 01:56:56;;;;;;;7.28;4.33;;;;;;;0.73;71.36;147855.25;1748655;79;21532;-67
2021/12/24 01:59:23;;;;;;;10.20;4.90;;;;;;;0.76;71.67;147862.97;1736927;79;21564;-67
2021/12/24 02:01:51;;;;;;;12.03;4.37;;;;;;;0.81;71.87;147875.88;1775763;79;21039;-66
2021/12/24 02:04:19;;;;;;;8.05;4.65;;;;;;;0.83;72.11;147881.03;1765199;79;21011;-66
2021/12/24 02:06:46;;;;;;;9.25;4.80;;;;;;;0.87;72.36;147888.75;1780077;79;21512;-66
2021/12/24 02:09:13;;;;;;;9.50;4.37;;;;;;;0.92;72.60;147901.63;1773797;79;21433;-66
2021/12/24 02:11:40;;;;;;;8.83;4.70;;;;;;;0.94;72.91;147908.06;1777239;79;21044;-60
2021/12/24 02:14:10;;;;;;;10.85;5.28;;;;;;;0.96;73.29;147913.22;1771394;79;21107;-60
2021/12/24 02:30:21;;;;;;;7.62;3.50;;;;;;;0.97;71.51;147914.48;1767666;79;21072;-66
2021/12/24 02:32:48;;;;;;;7.50;3.90;;;;;;;0.95;70.61;147909.33;1778888;79;21650;-59
2021/12/24 02:35:17;;;;;;;6.58;4.00;;;;;;;0.92;69.72;147901.63;1765920;79;21484;-59
2021/12/24 02:37:45;;;;;;;6.42;3.95;;;;;;;0.89;69.18;147895.20;1734851;81;21575;-60
2021/12/24 02:40:13;;;;;;;7.20;3.60;;;;;;;0.88;68.50;147891.31;1748280;80;21040;-60
2021/12/24 02:42:46;;;;;;;7.08;3.50;;;;;;;0.88;67.93;147891.31;1756929;79;21073;-59
2021/12/24 02:45:09;;;;;;;7.28;3.98;;;;;;;0.85;67.42;147886.17;1750403;80;21463;-61
2021/12/24 02:47:54;;;;;;;7.28;3.90;;;;;;;0.83;66.91;147881.03;1757317;80;21520;-60
2021/12/24 02:55:30;;;;;;;5.05;3.55;;;;;;;0.77;65.98;147865.53;1750231;80;21018;-59
2021/12/24 02:57:57;;;;;;;6.80;3.30;;;;;;;0.75;65.70;147860.39;1751978;81;21718;-66
2021/12/24 03:00:27;;;;;;;8.18;3.75;;;;;;;0.72;65.49;147852.67;1753382;81;21781;-59
2021/12/24 03:02:54;;;;;;;6.40;3.33;;;;;;;0.71;65.28;147850.09;1749755;80;21526;-59
2021/12/24 03:05:23;;;;;;;5.83;3.55;;;;;;;0.70;65.10;147847.52;1750475;80;21061;-59
2021/12/24 03:07:50;;;;;;;7.30;3.62;;;;;;;0.69;65.02;147844.95;1756037;79;21037;-61
2021/12/24 03:10:20;;;;;;;6.58;3.60;;;;;;;0.67;64.92;147839.81;1757716;81;21439;-61
2021/12/24 03:12:51;;;;;;;7.47;3.37;;;;;;;0.67;64.87;147839.81;1747797;81;21867;-60
2021/12/24 03:15:18;;;;;;;5.50;3.25;;;;;;;0.67;64.88;147839.81;1751567;80;20998;-61
2021/12/24 03:17:51;;;;;;;5.55;3.02;;;;;;;0.65;64.96;147835.92;1755833;81;21067;-59
2021/12/24 03:20:14;;;;;;;6.33;3.27;;;;;;;0.64;65.09;147832.08;1747407;81;22448;-58
2021/12/24 03:25:27;;;;;;;6.08;3.52;;;;;;;0.63;65.32;147830.78;1752133;81;21128;-59
2021/12/24 03:27:54;;;;;;;6.10;3.20;;;;;;;0.65;65.35;147834.66;1750727;81;21132;-60
2021/12/24 03:30:21;;;;;;;8.85;3.27;;;;;;;0.66;65.23;147837.23;1748995;80;21506;-59
2021/12/24 03:32:48;;;;;;;6.67;3.47;;;;;;;0.66;65.14;147837.23;1751818;81;22216;-59
2021/12/24 03:35:15;;;;;;;5.90;3.37;;;;;;;0.66;65.08;147838.55;1759803;79;21379;-59
2021/12/24 03:37:43;;;;;;;7.00;3.47;;;;;;;0.64;64.86;147833.34;1760161;79;21200;-59
2021/12/24 03:40:10;;;;;;;5.78;3.27;;;;;;;0.63;64.79;147830.78;1769112;79;21100;-59
2021/12/24 03:42:41;;;;;;;7.00;3.40;;;;;;;0.63;64.75;147829.52;1769996;79;21360;-59
2021/12/24 03:45:22;;;;;;;7.30;3.55;;;;;;;0.61;64.70;147824.37;1771014;79;21117;-60
2021/12/24 03:47:40;;;;;;;8.23;3.37;;;;;;;0.61;64.71;147825.62;1768906;79;21043;-60
2021/12/24 03:50:11;;;;;;;5.67;3.27;;;;;;;0.62;64.58;147826.94;1771624;79;21497;-60
2021/12/24 03:55:21;;;;;;;6.00;3.67;;;;;;;0.61;64.46;147824.37;1699787;82;21035;-60
2021/12/24 03:57:48;;;;;;;9.08;3.95;;;;;;;0.58;64.52;147817.91;1743632;79;21553;-60
2021/12/24 04:00:35;;;;;;;7.83;4.05;;;;;;;0.59;64.63;147820.48;1765191;79;21061;-59
2021/12/24 04:03:09;;;;;;;;;;;;;;;0.61;64.73;147824.37;1759448;79;21135;-60
2021/12/24 04:05:46;;;;;;;6.42;3.92;;;;;;;0.60;64.83;147821.78;1771140;79;20191;-59
2021/12/24 04:08:28;;;;;;;8.88;3.72;;;;;;;0.59;65.01;147819.22;1775437;79;21446;-60
2021/12/24 04:11:04;;;;;;;7.20;3.62;;;;;;;0.57;65.30;147815.34;1775082;79;21838;-59
2021/12/24 04:13:33;;;;;;;7.08;3.80;;;;;;;0.57;65.56;147815.34;1770931;79;21032;-60
2021/12/24 04:16:00;;;;;;;9.35;3.80;;;;;;;0.58;65.79;147816.64;1771670;79;21092;-59
2021/12/24 04:26:29;;;;;;;6.85;3.85;;;;;;;0.66;66.83;147837.23;1765589;79;21075;-60
2021/12/24 04:28:58;;;;;;;7.58;3.85;;;;;;;0.68;67.06;147842.38;1761659;79;21025;-60
2021/12/24 04:31:36;;;;;;;7.08;3.22;;;;;;;0.69;67.23;147844.95;1771520;79;21013;-60
2021/12/24 04:34:00;;;;;;;6.95;3.45;;;;;;;0.70;67.39;147847.52;1765217;79;21084;-60
2021/12/24 04:53:26;;;;;;;8.63;4.12;;;;;;;0.74;68.64;147857.81;1747252;80;21104;-59
2021/12/24 05:03:43;;;;;;;13.30;3.95;;;;;;;0.79;69.09;147870.73;1748300;80;21909;-59
2021/12/24 05:06:26;;;;;;;9.90;3.95;;;;;;;0.83;69.20;147881.03;1753151;80;21559;-60
2021/12/24 05:11:12;;;;;;;8.90;4.00;;;;;;;0.90;69.34;147896.47;1749917;80;21072;-60
2021/12/24 05:13:39;;;;;;;8.10;3.90;;;;;;;0.92;69.54;147901.63;1752301;80;21046;-60
2021/12/24 05:21:32;;;;;;;9.23;4.30;;;;;;;0.99;69.71;147919.63;1748418;80;21781;-59
2021/12/24 05:21:37;;;;;;;9.50;4.03;;;;;;;1.02;69.82;147927.41;1745956;80;21181;-60
2021/12/24 05:24:07;;;;;;;5.92;3.80;;;;;;;1.03;69.96;147929.97;1749993;80;21065;-68
2021/12/24 05:26:35;;;;;;;6.55;3.95;;;;;;;1.05;70.12;147933.81;1748726;80;21136;-67
2021/12/24 05:29:04;;;;;;;14.38;4.60;;;;;;;1.07;70.18;147940.27;1752964;80;21538;-67
2021/12/24 05:31:31;;;;;;;11.08;4.15;;;;;;;1.09;70.25;147944.11;1751736;80;21041;-60
2021/12/24 05:33:58;;;;;;;9.03;4.10;;;;;;;1.10;70.31;147947.98;1743664;80;21105;-60
2021/12/24 05:36:27;;;;;;;8.10;3.98;;;;;;;1.11;70.33;147950.56;1751395;80;21018;-67
2021/12/24 05:38:56;;;;;;;6.97;3.90;;;;;;;1.12;70.42;147953.14;1759364;80;21016;-68
2021/12/24 05:41:23;;;;;;;10.95;4.30;;;;;;;1.16;70.25;147960.86;1745970;80;20998;-66
2021/12/24 05:43:51;;;;;;;7.60;4.00;;;;;;;1.18;69.79;147967.31;1742723;81;21128;-66
2021/12/24 05:46:18;;;;;;;8.40;3.75;;;;;;;1.21;69.10;147973.73;1754369;81;22488;-69
2021/12/24 05:49:00;;;;;;;9.68;3.95;;;;;;;1.21;68.08;147973.73;1751804;81;21107;-67
2021/12/24 05:51:28;;;;;;;7.87;3.65;;;;;;;1.22;67.29;147976.36;1756571;81;21115;-66
2021/12/24 05:54:11;;;;;;;7.75;3.95;;;;;;;1.22;66.33;147977.63;1743395;81;21090;-60
2021/12/24 05:56:38;;;;;;;8.43;3.77;;;;;;;1.22;65.32;147976.36;1758236;81;21099;-60
2021/12/24 05:59:07;;;;;;;9.38;3.90;;;;;;;1.24;64.63;147981.50;1749817;81;21171;-67
2021/12/24 06:01:35;;;;;;;8.85;3.90;;;;;;;1.24;64.27;147981.50;1752951;81;21078;-61
2021/12/24 06:04:03;;;;;;;9.58;3.70;;;;;;;1.24;63.94;147982.77;1756971;81;21107;-60
2021/12/24 06:06:32;;;;;;;11.97;4.15;;;;;;;1.24;63.74;147982.77;1756334;81;21465;-61
2021/12/24 06:08:59;;;;;;;11.35;4.40;;;;;;;1.25;63.69;147984.08;1756402;81;21078;-60
2021/12/24 06:11:26;;;;;;;8.13;4.27;;;;;;;1.25;63.66;147984.08;1750156;81;21296;-61
2021/12/24 06:13:56;;;;;;;7.10;4.08;;;;;;;1.26;63.58;147986.66;1746195;81;21002;-60
2021/12/24 06:16:23;;;;;;;10.78;4.35;;;;;;;1.27;63.71;147989.23;1743545;81;21587;-60
2021/12/24 06:18:52;;;;;;;7.60;4.05;;;;;;;1.28;63.86;147991.80;1752898;81;21675;-61
2021/12/24 06:21:20;;;;;;;7.70;4.58;;;;;;;1.28;63.97;147991.80;1742243;81;21021;-60
2021/12/24 06:23:48;;;;;;;13.00;5.72;;;;;;;1.28;64.15;147993.06;1756640;80;21600;-60
2021/12/24 06:26:16;;;;;;;12.85;5.47;;;;;;;1.29;64.30;147994.38;1749238;80;21556;-60
2021/12/24 06:28:43;;;;;;;11.85;6.28;;;;;;;1.28;64.46;147991.80;1756112;81;21080;-67
2021/12/24 06:31:10;;;;;;;8.70;4.80;;;;;;;1.27;64.61;147989.23;1745635;80;21584;-59
2021/12/24 06:33:37;;;;;;;9.38;5.00;;;;;;;1.25;64.73;147984.08;1754640;81;21487;-59
2021/12/24 06:36:06;;;;;;;12.20;5.33;;;;;;;1.23;64.86;147978.94;1741216;81;21127;-59
2021/12/24 06:38:33;;;;;;;9.58;5.00;;;;;;;1.23;64.87;147978.94;1761486;81;21139;-60
2021/12/24 06:41:00;;;;;;;10.82;5.28;;;;;;;1.26;64.80;147986.66;1758111;81;21033;-60
2021/12/24 06:43:28;;;;;;;10.65;5.10;;;;;;;1.26;64.63;147986.66;1746661;81;21091;-61
2021/12/24 06:45:56;;;;;;;9.10;5.05;;;;;;;1.26;64.51;147987.91;1755585;81;21573;-61
2021/12/24 06:48:23;;;;;;;9.93;4.95;;;;;;;1.27;64.39;147989.23;1751773;81;21155;-61
2021/12/24 06:50:50;;;;;;;15.50;5.58;;;;;;;1.26;63.96;147986.66;1747954;80;21077;-61
2021/12/24 06:53:18;;;;;;;17.20;5.83;;;;;;;1.27;63.71;147989.23;1749941;81;21464;-61
2021/12/24 06:55:46;;;;;;;9.93;5.17;;;;;;;1.25;63.59;147985.34;1722901;81;21507;-68
2021/12/24 06:58:12;;;;;;;11.10;4.95;;;;;;;1.26;63.34;147986.66;1750684;80;21095;-68
2021/12/24 07:00:39;;;;;;;12.60;5.22;;;;;;;1.25;63.14;147985.34;1744146;81;21527;-61
2021/12/24 07:03:08;;;;;;;10.63;5.40;;;;;;;1.25;63.06;147984.08;1750160;81;21570;-61
2021/12/24 07:05:35;;;;;;;9.55;4.65;;;;;;;1.26;62.87;147986.66;1748940;81;21090;-60
2021/12/24 07:08:02;;;;;;;7.78;4.67;;;;;;;1.25;62.55;147984.08;1753195;81;21663;-60
2021/12/24 07:10:31;;;;;;;12.00;5.05;;;;;;;1.24;62.39;147981.50;1749265;81;21083;-60
2021/12/24 07:12:57;;;;;;;11.38;4.33;;;;;;;1.24;62.01;147981.50;1745309;81;21117;-60
2021/12/24 07:15:24;;;;;;;10.25;4.58;;;;;;;1.25;61.82;147984.08;1748826;81;21737;-61
2021/12/24 07:17:51;;;;;;;10.25;4.33;;;;;;;1.31;61.30;147998.22;1752072;81;21072;-61
2021/12/24 07:20:17;;;;;;;11.95;4.05;;;;;;;1.35;60.74;148009.81;1746961;81;21067;-61
2021/12/24 07:22:47;;;;;;;11.40;4.15;;;;;;;1.39;59.83;148020.13;1744416;81;21097;-61
2021/12/24 07:25:14;;;;;;;14.50;4.10;;;;;;;1.43;59.05;148030.42;1750388;80;21102;-61
2021/12/24 07:27:40;;;;;;;12.93;4.08;;;;;;;1.48;58.52;148040.77;1747990;81;22401;-61
2021/12/24 07:30:10;;;;;;;8.95;3.77;;;;;;;1.50;57.95;148045.91;1745363;81;21091;-60
2021/12/24 07:32:39;;;;;;;6.72;3.67;;;;;;;1.50;57.38;148047.19;1745510;81;21276;-59
2021/12/24 07:35:08;;;;;;;11.53;3.92;;;;;;;1.50;57.12;148045.91;1747784;81;21103;-68
2021/12/24 07:37:35;;;;;;;20.05;4.28;;;;;;;1.51;56.99;148048.50;1747764;81;21571;-68
2021/12/24 07:40:03;;;;;;;12.23;3.77;;;;;;;1.54;56.84;148056.22;1753532;80;22272;-66
2021/12/24 07:42:32;;;;;;;9.03;4.00;;;;;;;1.59;56.75;148069.09;1748989;80;21073;-60
2021/12/24 07:44:59;;;;;;;6.30;3.90;;;;;;;1.62;56.58;148076.81;1751962;80;21129;-60
2021/12/24 07:52:58;;;;;;;11.97;4.67;;;;;;;1.66;56.53;148085.86;1754624;80;21467;-60
2021/12/24 07:55:26;;;;;;;9.23;4.00;;;;;;;1.67;56.63;148088.44;1757185;80;21044;-65
2021/12/24 07:57:56;;;;;;;14.95;4.33;;;;;;;1.67;56.65;148089.75;1736010;80;21056;-67
2021/12/24 08:00:26;;;;;;;7.40;4.15;;;;;;;1.67;57.04;148089.75;1755404;80;21051;-67
2021/12/24 08:02:55;;;;;;;11.43;4.65;;;;;;;1.65;57.95;148084.55;1747667;80;21134;-66
2021/12/24 08:05:25;;;;;;;9.48;4.45;;;;;;;1.65;59.06;148084.55;1749484;80;21055;-67
2021/12/24 08:07:52;;;;;;;8.68;4.35;;;;;;;1.64;60.32;148081.97;1748722;80;21085;-67
2021/12/24 08:10:20;;;;;;;8.93;4.67;;;;;;;1.63;61.41;148078.13;1749987;80;21646;-61
2021/12/24 08:12:49;;;;;;;11.20;4.53;;;;;;;1.63;62.08;148078.13;1752284;80;20977;-61
2021/12/24 08:15:17;;;;;;;10.70;5.20;;;;;;;1.64;62.82;148081.97;1752265;80;21093;-60
2021/12/24 08:17:44;;;;;;;22.22;5.78;;;;;;;1.65;63.58;148084.55;1752391;80;21065;-61
2021/12/24 08:20:11;;;;;;;15.48;4.70;;;;;;;1.63;64.49;148079.39;1750603;80;21649;-61
2021/12/24 08:22:38;;;;;;;7.92;4.55;;;;;;;1.62;65.87;148076.81;1753286;80;21041;-61
2021/12/24 08:25:06;;;;;;;6.92;4.75;;;;;;;1.57;66.88;148063.94;1753424;80;21082;-60
2021/12/24 08:27:34;;;;;;;8.15;4.65;;;;;;;1.50;67.47;148045.91;1759570;79;22097;-61
2021/12/24 08:30:03;;;;;;;12.43;4.87;;;;;;;1.48;67.87;148040.77;1750289;80;21042;-61
2021/12/24 08:32:31;;;;;;;14.87;5.60;;;;;;;1.43;67.71;148030.42;1751537;80;21703;-61
2021/12/24 08:34:58;;;;;;;14.23;5.35;;;;;;;1.39;67.79;148020.13;1756448;79;21087;-60
2021/12/24 08:37:25;;;;;;;13.15;5.35;;;;;;;1.37;68.45;148014.97;1757927;80;21145;-66
2021/12/24 08:39:52;;;;;;;12.20;4.90;;;;;;;1.34;69.53;148007.25;1756305;80;22374;-61
2021/12/24 08:42:19;;;;;;;13.15;4.80;;;;;;;1.29;70.72;147994.38;1758601;80;22271;-62
2021/12/24 08:44:45;;;;;;;12.85;5.40;;;;;;;1.23;72.12;147980.19;1769076;80;21103;-60
2021/12/24 08:47:12;;;;;;;8.20;5.17;;;;;;;1.18;73.06;147967.31;1759351;80;21138;-60
2021/12/24 08:49:40;;;;;;;11.22;6.15;;;;;;;1.10;74.06;147946.69;1753392;79;21080;-60
2021/12/24 08:52:07;;;;;;;12.28;5.10;;;;;;;1.05;74.96;147933.81;1755705;79;21180;-60
2021/12/24 08:54:34;;;;;;;129.53;44.05;;;;;;;1.03;76.07;147928.66;1748811;80;21538;-60
2021/12/24 08:57:01;;;;;;;10.58;5.78;;;;;;;0.97;77.31;147915.80;1781827;79;21075;-60
2021/12/24 08:59:27;;;;;;;11.38;6.33;;;;;;;0.93;78.73;147905.50;1769407;79;21307;-60
2021/12/24 09:01:58;;;;;;;14.30;6.50;;;;;;;0.85;79.72;147886.17;1754123;80;21080;-60
2021/12/24 09:04:25;;;;;;;12.68;6.40;;;;;;;0.80;81.00;147873.31;1756575;80;21681;-60
2021/12/24 09:06:51;;;;;;;14.50;6.55;;;;;;;0.75;82.01;147860.39;1751789;80;21080;-61
2021/12/24 09:09:18;;;;;;;14.15;6.83;;;;;;;0.70;82.87;147847.52;1751596;80;21056;-60
2021/12/24 09:11:46;;;;;;;13.53;7.10;;;;;;;0.67;83.83;147841.11;1754168;80;21497;-60
2021/12/24 09:14:19;;;;;;;11.55;5.85;;;;;;;0.68;84.46;147842.38;1755296;80;21466;-59
2021/12/24 09:16:47;;;;;;;9.63;5.92;;;;;;;0.68;85.15;147842.38;1752609;80;21486;-60
2021/12/24 09:19:19;;;;;;;10.05;5.37;;;;;;;0.69;85.51;147844.95;1753494;81;21547;-60
2021/12/24 09:21:46;;;;;;;12.68;5.58;;;;;;;0.70;85.89;147847.52;1750099;80;21057;-59
2021/12/24 09:24:13;;;;;;;15.00;5.90;;;;;;;0.67;86.02;147841.11;1773662;79;21112;-59
2021/12/24 09:26:40;;;;;;;12.18;5.70;;;;;;;0.64;86.40;147833.34;1756561;80;21514;-60
2021/12/24 09:29:08;;;;;;;11.70;6.30;;;;;;;0.59;86.76;147820.48;1782205;79;21856;-60
2021/12/24 09:31:35;;;;;;;13.58;7.00;;;;;;;0.52;87.14;147802.47;1754268;80;20921;-60
2021/12/24 09:34:01;;;;;;;13.68;6.65;;;;;;;0.44;87.69;147783.16;1741467;81;21113;-60
2021/12/24 09:36:29;;;;;;;12.20;7.10;;;;;;;0.39;88.21;147770.28;1760168;79;21124;-59
2021/12/24 09:38:58;;;;;;;11.28;6.22;;;;;;;0.36;88.76;147762.56;1758419;79;21056;-59
2021/12/24 09:41:25;;;;;;;13.45;6.42;;;;;;;0.34;89.16;147757.44;1773388;79;21845;-58
2021/12/24 09:43:52;;;;;;;13.65;6.80;;;;;;;0.34;89.41;147757.44;1756862;79;21095;-67
2021/12/24 09:46:19;;;;;;;11.75;6.80;;;;;;;0.35;89.83;147760.00;1756375;80;21060;-67
2021/12/24 09:48:46;;;;;;;12.73;7.08;;;;;;;0.35;90.07;147760.00;1740033;80;21058;-65
2021/12/24 09:51:15;;;;;;;10.88;6.87;;;;;;;0.36;90.68;147762.56;1756684;79;22207;-66
2021/12/24 09:53:41;;;;;;;10.68;6.50;;;;;;;0.36;91.04;147762.56;1776204;79;21033;-68
2021/12/24 09:56:08;;;;;;;12.85;6.45;;;;;;;0.41;91.53;147775.44;1752950;79;21057;-67
2021/12/24 09:58:36;;;;;;;12.15;6.28;;;;;;;0.48;91.73;147793.44;1752790;79;21716;-66
2021/12/24 10:01:03;;;;;;;12.28;6.75;;;;;;;0.59;91.98;147819.22;1750358;80;22033;-68
2021/12/24 10:03:36;;;;;;;10.93;5.90;;;;;;;0.67;91.85;147839.81;1761815;79;21688;-67
2021/12/24 10:06:04;;;;;;;8.75;5.37;;;;;;;0.73;91.75;147855.25;1754313;80;21574;-66
2021/12/24 10:08:31;;;;;;;13.05;6.83;;;;;;;0.79;91.52;147869.42;1754769;80;21442;-66
2021/12/24 10:11:09;;;;;;;11.93;6.08;;;;;;;0.82;91.34;147878.45;1754079;80;20981;-66
2021/12/24 10:13:44;;;;;;;12.33;6.80;;;;;;;0.84;91.09;147883.59;1755279;80;21680;-59
2021/12/24 10:16:15;;;;;;;15.38;6.67;;;;;;;0.85;90.90;147884.86;1759908;80;21071;-59
2021/12/24 10:18:51;;;;;;;12.70;6.90;;;;;;;0.84;90.75;147883.59;1761223;79;20921;-61
2021/12/24 10:21:25;;;;;;;11.00;7.17;;;;;;;0.81;90.48;147875.88;1756795;80;20901;-61
2021/12/24 10:24:02;;;;;;;13.43;6.95;;;;;;;0.79;89.89;147870.73;1756301;78;21143;-60
2021/12/24 10:26:37;;;;;;;13.60;7.22;;;;;;;0.78;89.38;147868.16;1758807;80;21577;-60
2021/12/24 10:29:18;;;;;;;11.15;6.00;;;;;;;0.77;88.93;147864.28;1756081;80;21798;-61
2021/12/24 10:31:52;;;;;;;10.93;6.65;;;;;;;0.77;88.89;147865.53;1755295;80;21802;-65
2021/12/24 10:34:28;;;;;;;10.20;5.97;;;;;;;0.82;88.94;147878.45;1755954;78;21068;-65
2021/12/24 10:37:03;;;;;;;15.90;7.70;;;;;;;0.87;88.73;147890.02;1754551;80;21056;-66
2021/12/24 10:39:39;;;;;;;14.43;8.00;;;;;;;0.90;88.46;147896.47;1744745;79;21072;-66
2021/12/24 10:42:13;;;;;;;15.50;7.25;;;;;;;0.91;88.24;147900.34;1768906;79;21508;-65
2021/12/24 10:44:41;;;;;;;15.50;7.90;;;;;;;0.92;87.98;147901.63;1768049;79;21184;-66
2021/12/24 10:47:25;;;;;;;13.78;7.30;;;;;;;0.96;87.92;147911.91;1774777;80;21279;-66
2021/12/24 10:50:09;;;;;;;12.45;7.15;;;;;;;0.96;87.68;147913.22;1767832;80;21238;-60
2021/12/24 10:52:57;;;;;;;250.97;76.07;;;;;;;0.96;87.43;147911.91;1767390;79;21055;-59
2021/12/24 10:55:17;;;;;;;15.28;8.15;;;;;;;0.94;87.52;147908.06;1768021;79;20909;-59
2021/12/24 10:57:46;;;;;;;14.20;8.20;;;;;;;0.99;87.54;147919.63;1766122;79;21596;-60
2021/12/24 11:00:24;;;;;;;15.65;7.92;;;;;;;1.03;87.49;147929.97;1745739;80;21747;-60
2021/12/24 11:02:57;;;;;;;13.90;8.53;;;;;;;1.06;87.32;147937.69;1769178;79;21553;-59
2021/12/24 11:05:32;;;;;;;12.75;7.35;;;;;;;1.08;87.36;147942.84;1764682;79;21137;-59
2021/12/24 11:08:01;;;;;;;14.60;7.53;;;;;;;1.09;87.02;147945.42;1765788;79;21678;-59
2021/12/24 11:10:31;;;;;;;13.13;7.80;;;;;;;1.08;86.96;147942.84;1765521;79;21152;-60
2021/12/24 11:13:08;;;;;;;13.13;7.65;;;;;;;1.11;86.63;147949.31;1758498;80;21070;-60
2021/12/24 11:15:46;;;;;;;15.83;8.05;;;;;;;1.10;86.42;147947.98;1756813;80;21099;-60
2021/12/24 11:18:22;;;;;;;13.65;7.90;;;;;;;1.09;86.08;147944.11;1752454;80;21206;-59
2021/12/24 11:21:17;;;;;;;14.68;8.20;;;;;;;1.12;86.13;147951.88;1758796;80;21620;-59
2021/12/24 11:23:45;;;;;;;12.00;5.78;;;;;;;1.17;85.98;147963.44;1765880;79;21184;-59
2021/12/24 11:26:23;;;;;;;16.12;8.00;;;;;;;1.19;85.63;147968.59;1740031;80;21299;-59
2021/12/24 11:28:49;;;;;;;14.10;7.70;;;;;;;1.19;85.34;147968.59;1755754;80;21415;-60
2021/12/24 11:31:27;;;;;;;13.70;7.78;;;;;;;1.16;85.06;147962.17;1760151;80;21043;-58
2021/12/24 11:33:54;;;;;;;14.18;8.23;;;;;;;1.16;85.10;147962.17;1761705;80;20937;-59
2021/12/24 11:36:23;;;;;;;13.95;8.23;;;;;;;1.18;84.93;147966.02;1739556;79;21966;-60
2021/12/24 11:38:54;;;;;;;13.05;8.23;;;;;;;1.16;84.82;147960.86;1746012;79;20970;-60
2021/12/24 11:41:25;;;;;;;12.35;7.72;;;;;;;1.19;84.77;147968.59;1758609;80;21104;-60
2021/12/24 11:43:54;;;;;;;13.38;7.83;;;;;;;1.19;84.46;147968.59;1758378;80;21091;-59
2021/12/24 11:46:24;;;;;;;14.65;7.87;;;;;;;1.18;84.33;147967.31;1773657;78;21551;-59
2021/12/24 11:48:53;;;;;;;14.15;8.13;;;;;;;1.21;84.27;147973.73;1780410;79;21191;-58
2021/12/24 11:51:40;;;;;;;14.68;8.08;;;;;;;1.22;84.15;147977.63;1774814;79;21184;-60
2021/12/24 11:54:05;;;;;;;15.35;8.53;;;;;;;1.24;83.95;147982.77;1762144;80;21035;-60
2021/12/24 11:56:45;;;;;;;18.00;8.70;;;;;;;1.27;83.87;147990.50;1780963;78;20991;-59
2021/12/24 11:59:12;;;;;;;15.03;8.55;;;;;;;1.31;83.50;147998.22;1774550;78;21122;-58
2021/12/24 12:01:41;;;;;;;14.87;8.38;;;;;;;1.32;83.35;148000.78;1769198;78;23288;-58
2021/12/24 12:04:19;;;;;;;15.28;8.10;;;;;;;1.35;83.11;148009.81;1772694;79;21992;-59
2021/12/24 12:06:46;;;;;;;17.62;8.18;;;;;;;1.38;82.61;148016.28;1790569;78;21398;-59
2021/12/24 12:09:15;;;;;;;17.48;8.43;;;;;;;1.41;82.22;148025.27;1789814;78;21099;-65
2021/12/24 12:11:44;;;;;;;20.70;8.15;;;;;;;1.44;82.00;148031.73;1761932;80;21102;-65
2021/12/24 12:14:21;;;;;;;14.70;7.65;;;;;;;1.49;81.71;148044.61;1759340;80;21506;-64
2021/12/24 12:16:57;;;;;;;15.78;8.70;;;;;;;1.53;81.36;148054.91;1777169;78;21154;-65
2021/12/24 12:22:28;;;;;;;13.38;7.65;;;;;;;1.55;80.99;148058.78;1800557;78;21084;-65
2021/12/24 12:24:58;;;;;;;15.72;8.18;;;;;;;1.56;80.78;148061.37;1794464;78;21092;-66
2021/12/24 12:27:50;;;;;;;15.95;8.55;;;;;;;1.59;80.64;148069.09;1768999;79;21377;-64
2021/12/24 12:30:47;;;;;;;16.00;8.90;;;;;;;1.63;80.26;148079.39;1760258;80;21084;-65
2021/12/24 12:33:23;;;;;;;16.20;8.18;;;;;;;1.63;79.85;148079.39;1792295;78;21138;-61
2021/12/24 12:36:01;;;;;;;14.90;8.58;;;;;;;1.65;79.69;148084.55;1772604;78;21069;-60
2021/12/24 12:38:35;;;;;;;14.38;7.67;;;;;;;1.65;79.44;148084.55;1763714;80;21015;-60
2021/12/24 12:41:34;;;;;;;16.67;8.45;;;;;;;1.63;79.25;148078.13;1770690;78;21138;-65
2021/12/24 12:44:11;;;;;;;16.77;8.80;;;;;;;1.63;79.30;148079.39;1764548;79;21039;-65
2021/12/24 12:46:41;;;;;;;17.40;8.75;;;;;;;1.63;79.13;148079.39;1780144;78;21052;-59
2021/12/24 12:49:15;;;;;;;15.60;8.23;;;;;;;1.63;78.89;148079.39;1787108;79;21561;-60
2021/12/24 12:51:56;;;;;;;13.05;7.62;;;;;;;1.62;78.57;148076.81;1798020;78;21426;-60
2021/12/24 12:54:46;;;;;;;17.55;8.18;;;;;;;1.61;78.51;148072.98;1803762;78;22323;-59
2021/12/24 12:57:31;;;;;;;16.80;9.18;;;;;;;1.59;78.32;148069.09;1795875;78;21219;-59
2021/12/24 13:00:24;;;;;;;14.33;8.55;;;;;;;1.58;78.23;148066.52;1803162;78;21115;-60
2021/12/24 13:05:45;;;;;;;16.45;8.53;;;;;;;1.59;77.84;148069.09;1803412;78;21628;-60
2021/12/24 13:08:20;;;;;;;16.73;8.85;;;;;;;1.60;77.74;148071.66;1804938;78;21957;-60
2021/12/24 13:11:11;;;;;;;17.30;8.75;;;;;;;1.62;77.52;148076.81;1799804;78;21114;-61
2021/12/24 13:13:53;;;;;;;15.85;8.18;;;;;;;1.64;77.42;148081.97;1778405;79;21875;-61
2021/12/24 13:16:34;;;;;;;16.82;9.05;;;;;;;1.64;77.38;148080.70;1801403;78;21052;-62
2021/12/24 13:19:20;;;;;;;16.77;8.65;;;;;;;1.64;77.35;148080.70;1784716;78;21047;-59
2021/12/24 13:24:11;;;;;;;13.78;7.65;;;;;;;1.67;76.84;148088.44;1707424;82;21121;-60
2021/12/24 13:26:38;;;;;;;15.40;8.35;;;;;;;1.66;76.59;148087.17;1789537;78;21071;-61
2021/12/24 13:29:12;;;;;;;16.02;8.40;;;;;;;1.68;76.35;148092.31;1800039;78;21123;-60
2021/12/24 13:31:36;;;;;;;14.55;7.65;;;;;;;1.70;76.20;148097.47;1806891;78;21027;-61
2021/12/24 13:34:10;;;;;;;17.55;8.05;;;;;;;1.73;76.00;148102.63;1798642;78;21043;-66
2021/12/24 13:36:37;;;;;;;14.18;8.00;;;;;;;1.71;75.87;148098.73;1787378;79;21477;-65